Overview Statistics Trail Chart Weather Telemetry Raw packets
 

This is the latest recevied weather packets stored in our database for station/object YO8KGT-13. If no packets are shown the sender has not sent any weather packets the latest 10 day(s).

<< 1 2 3 4 5 6 >>
Time Temp. Humidity Pressure Rain* Wind** Luminosity Snow
1788617364 19.44° C 68% 946 hPa 0 mm - - -
1788617056 19.44° C 68% 945 hPa 0 mm - - -
1788616761 19.44° C 68% 945 hPa 0 mm - - -
1788616456 19.44° C 69% 945 hPa 0 mm - - -
1788616157 19.44° C 70% 945 hPa 0 mm - - -
1788615877 19.44° C 70% 944 hPa 0 mm - - -
1788615556 19.44° C 70% 945 hPa 0 mm - - -
1788615273 19.44° C 70% 945 hPa 0 mm - - -
1788614958 19.44° C 70% 945 hPa 0 mm - - -
1788614657 19.44° C 69% 945 hPa 0 mm - - -
1788614357 20° C 69% 945 hPa 0 mm - - -
1788614078 20° C 69% 945 hPa 0 mm - - -
1788613784 20° C 68% 945 hPa 0 mm - - -
1788613457 20° C 68% 945 hPa 0 mm - - -
1788613169 20° C 67% 944 hPa 0 mm - - -
1788612856 20° C 65% 945 hPa 0 mm - - -
1788612556 21.11° C 63% 945 hPa 0 mm - - -
1788612258 22.22° C 60% 945 hPa 0 mm - - -
1788611957 23.33° C 56% 945 hPa 0 mm - - -
1788611681 24.44° C 53% 945 hPa 0 mm - - -
1788611356 25° C 52% 945 hPa 0 mm - - -
1788611063 25.56° C 52% 944 hPa 0 mm - - -
1788610757 26.67° C 51% 945 hPa 0 mm - - -
1788610458 27.22° C 50% 944 hPa 0 mm - - -
1788610158 27.78° C 49% 944 hPa 0 mm - - -

* Rain latest hour (hover to see other rain measurements)
** Current wind speed in m/s (hover to see current wind gust speed)